createdAt,value
2023-01-25T00:00:01.195Z,66.10
2023-01-25T00:02:33.283Z,46.45
2023-01-25T00:05:05.721Z,55.45
2023-01-25T00:07:37.870Z,63.70
2023-01-25T00:10:10.519Z,60.30
2023-01-25T00:12:42.496Z,54.05
2023-01-25T00:15:14.594Z,68.28
2023-01-25T00:17:46.532Z,52.47
2023-01-25T00:20:18.700Z,49.05
2023-01-25T00:22:50.685Z,51.85
2023-01-25T00:25:22.583Z,61.22
2023-01-25T00:27:54.468Z,46.95
2023-01-25T00:30:26.421Z,40.25
2023-01-25T00:33:06.846Z,23.75
2023-01-25T00:35:39.235Z,17.58
2023-01-25T00:38:43.738Z,22.13
2023-01-25T00:41:15.735Z,28.75
2023-01-25T00:43:47.667Z,18.88
2023-01-25T00:46:20.018Z,12.98
2023-01-25T00:48:55.539Z,14.30
2023-01-25T00:51:27.728Z,19.40
2023-01-25T00:53:59.687Z,18.67
2023-01-25T00:56:31.660Z,15.68
2023-01-25T00:59:03.700Z,16.73
2023-01-25T01:01:35.905Z,18.27
2023-01-25T01:04:08.143Z,18.20
2023-01-25T01:06:40.917Z,18.58
2023-01-25T01:09:15.964Z,20.65
2023-01-25T01:11:48.433Z,19.45
2023-01-25T01:14:21.826Z,21.48
2023-01-25T01:16:53.732Z,21.20
2023-01-25T01:19:25.748Z,22.88
2023-01-25T01:21:57.723Z,24.65
2023-01-25T01:24:29.840Z,22.67
2023-01-25T01:27:01.931Z,26.83
2023-01-25T01:29:34.100Z,20.08
2023-01-25T01:32:06.436Z,19.52
2023-01-25T01:34:38.455Z,19.08
2023-01-25T01:37:10.616Z,22.23
2023-01-25T01:39:42.581Z,25.33
2023-01-25T01:42:14.575Z,25.90
2023-01-25T01:44:54.488Z,21.30
2023-01-25T01:47:31.476Z,23.80
2023-01-25T01:50:06.903Z,23.30
2023-01-25T01:52:39.162Z,19.80
2023-01-25T01:55:18.864Z,21.88
2023-01-25T01:57:56.084Z,19.27
2023-01-25T02:00:33.034Z,21.42
2023-01-25T02:03:05.036Z,21.45
2023-01-25T02:06:04.934Z,20.60
2023-01-25T02:08:41.145Z,21.05
2023-01-25T02:11:13.567Z,22.15
2023-01-25T02:13:45.632Z,20.98
2023-01-25T02:16:21.510Z,22.65
2023-01-25T02:18:56.444Z,21.23
2023-01-25T02:21:37.096Z,23.13
2023-01-25T02:24:18.770Z,21.60
2023-01-25T02:26:50.815Z,23.63
2023-01-25T02:29:24.518Z,23.30
2023-01-25T02:32:14.725Z,23.17
2023-01-25T02:34:46.730Z,21.27
2023-01-25T02:37:18.712Z,21.77
2023-01-25T02:39:51.653Z,20.10
2023-01-25T02:42:23.738Z,18.30
2023-01-25T02:44:55.775Z,17.85
2023-01-25T02:47:27.708Z,17.58
2023-01-25T02:49:59.790Z,16.40
2023-01-25T02:52:31.846Z,16.92
2023-01-25T02:55:04.037Z,17.30
2023-01-25T02:57:35.980Z,15.05
2023-01-25T03:00:08.883Z,15.02
2023-01-25T03:02:40.854Z,14.43
2023-01-25T03:05:12.985Z,15.07
2023-01-25T03:07:45.127Z,14.82
2023-01-25T03:10:17.246Z,18.13
2023-01-25T03:12:49.184Z,12.75
2023-01-25T03:15:21.120Z,14.43
2023-01-25T03:17:53.036Z,17.77
2023-01-25T03:20:25.177Z,12.73
2023-01-25T03:22:57.130Z,12.27
2023-01-25T03:25:29.197Z,13.38
2023-01-25T03:28:01.141Z,13.88
2023-01-25T03:30:33.134Z,11.82
2023-01-25T03:33:05.173Z,12.25
2023-01-25T03:35:37.131Z,12.25
2023-01-25T03:38:09.037Z,9.18
2023-01-25T03:40:40.972Z,12.80
2023-01-25T03:43:13.284Z,11.18
2023-01-25T03:45:45.390Z,13.00
2023-01-25T03:48:17.445Z,12.63
2023-01-25T03:50:54.156Z,11.27
2023-01-25T03:53:30.650Z,11.98
2023-01-25T03:56:12.004Z,12.85
2023-01-25T03:58:43.906Z,8.35
2023-01-25T04:01:15.914Z,9.70
2023-01-25T04:03:47.919Z,9.18
2023-01-25T04:06:19.859Z,11.18
2023-01-25T04:08:52.335Z,12.18
2023-01-25T04:11:24.325Z,13.13
2023-01-25T04:13:56.249Z,14.00
2023-01-25T04:16:30.762Z,14.63
2023-01-25T04:19:02.869Z,12.27
2023-01-25T04:21:34.796Z,10.68
2023-01-25T04:24:07.051Z,10.07
2023-01-25T04:26:39.177Z,10.88
2023-01-25T04:29:11.176Z,10.60
2023-01-25T04:31:43.268Z,11.60
2023-01-25T04:34:15.277Z,10.00
2023-01-25T04:36:47.389Z,13.35
2023-01-25T04:39:19.695Z,10.73
2023-01-25T04:41:51.621Z,12.85
2023-01-25T04:44:23.609Z,13.88
2023-01-25T04:46:55.543Z,11.05
2023-01-25T04:49:27.458Z,13.18
2023-01-25T04:51:59.328Z,14.18
2023-01-25T04:54:31.342Z,15.48
2023-01-25T04:57:04.063Z,11.90
2023-01-25T04:59:36.024Z,14.38
2023-01-25T05:02:07.938Z,13.00
2023-01-25T05:04:39.917Z,16.40
2023-01-25T05:07:12.042Z,19.95
2023-01-25T05:09:43.993Z,13.02
2023-01-25T05:12:15.968Z,15.77
2023-01-25T05:14:47.935Z,16.60
2023-01-25T05:17:20.103Z,14.23
2023-01-25T05:19:52.116Z,14.20
2023-01-25T05:22:24.365Z,12.65
2023-01-25T05:24:56.414Z,13.88
2023-01-25T05:27:28.384Z,17.67
2023-01-25T05:30:00.370Z,21.10
2023-01-25T05:32:32.650Z,17.27
2023-01-25T05:35:04.885Z,20.55
2023-01-25T05:37:36.840Z,17.08
2023-01-25T05:40:09.666Z,21.75
2023-01-25T05:42:42.178Z,18.23
2023-01-25T05:45:14.096Z,13.80
2023-01-25T05:47:46.091Z,12.68
2023-01-25T05:50:18.251Z,12.90
2023-01-25T05:52:50.370Z,20.33
2023-01-25T05:55:22.352Z,21.80
2023-01-25T05:57:57.427Z,21.40
2023-01-25T06:00:29.427Z,21.33
2023-01-25T06:03:02.646Z,21.67
2023-01-25T06:05:34.662Z,18.00
2023-01-25T06:08:06.621Z,18.85
2023-01-25T06:10:38.632Z,22.83
2023-01-25T06:13:10.539Z,21.58
2023-01-25T06:15:42.645Z,17.70
2023-01-25T06:18:14.671Z,17.30
2023-01-25T06:20:46.810Z,20.38
2023-01-25T06:23:19.134Z,22.33
2023-01-25T06:25:51.423Z,21.77
2023-01-25T06:28:23.323Z,19.45
2023-01-25T06:30:55.412Z,21.90
2023-01-25T06:33:27.354Z,26.23
2023-01-25T06:36:05.599Z,18.08
2023-01-25T06:38:37.645Z,21.70
2023-01-25T06:41:12.282Z,19.90
2023-01-25T06:43:44.349Z,26.63
2023-01-25T06:46:16.395Z,20.17
2023-01-25T06:48:48.390Z,24.02
2023-01-25T06:51:20.441Z,18.73
2023-01-25T06:53:52.443Z,20.13
2023-01-25T06:56:26.171Z,19.13
2023-01-25T06:58:58.131Z,25.50
2023-01-25T07:01:30.765Z,25.88
2023-01-25T07:04:02.852Z,23.55
2023-01-25T07:06:35.552Z,25.00
2023-01-25T07:09:13.216Z,24.35
2023-01-25T07:11:45.422Z,22.15
2023-01-25T07:14:17.658Z,24.63
2023-01-25T07:16:49.611Z,23.73
2023-01-25T07:19:21.660Z,23.30
2023-01-25T07:21:54.107Z,24.27
2023-01-25T07:24:27.602Z,27.92
2023-01-25T07:26:59.755Z,24.95
2023-01-25T07:29:31.697Z,25.23
2023-01-25T07:32:03.842Z,29.35
2023-01-25T07:34:36.209Z,25.90
2023-01-25T07:37:09.592Z,24.98
2023-01-25T07:39:48.417Z,21.83
2023-01-25T07:42:20.272Z,21.77
2023-01-25T07:44:52.337Z,43.65
2023-01-25T07:47:24.444Z,49.90
2023-01-25T07:49:56.407Z,24.83
2023-01-25T07:52:28.338Z,24.17
2023-01-25T07:55:00.302Z,27.60
2023-01-25T07:57:32.228Z,45.33
2023-01-25T08:00:04.702Z,23.95
2023-01-25T08:02:36.960Z,28.67
2023-01-25T08:05:09.855Z,28.45
2023-01-25T08:07:41.987Z,26.30
2023-01-25T08:10:14.416Z,28.95
2023-01-25T08:12:46.981Z,24.15
2023-01-25T08:15:18.946Z,31.10
2023-01-25T08:17:50.841Z,42.50
2023-01-25T08:20:22.952Z,42.53
2023-01-25T08:22:54.872Z,33.88
2023-01-25T08:25:27.465Z,38.53
2023-01-25T08:27:59.380Z,35.55
2023-01-25T08:30:31.842Z,37.35
2023-01-25T08:33:04.051Z,35.05
2023-01-25T08:35:37.130Z,41.42
2023-01-25T08:38:09.093Z,32.83
2023-01-25T08:40:41.088Z,37.85
2023-01-25T08:43:15.134Z,35.13
2023-01-25T08:45:56.088Z,30.88
2023-01-25T08:48:28.303Z,27.88
2023-01-25T08:51:01.126Z,31.05
2023-01-25T08:53:33.470Z,33.40
2023-01-25T08:56:10.436Z,42.83
2023-01-25T08:58:47.527Z,43.20
2023-01-25T09:01:20.676Z,43.38
2023-01-25T09:03:54.402Z,75.60
2023-01-25T09:06:26.405Z,59.10
2023-01-25T09:09:00.541Z,40.63
2023-01-25T09:11:35.021Z,37.72
2023-01-25T09:14:07.263Z,67.47
2023-01-25T09:16:39.208Z,59.33
2023-01-25T09:19:11.561Z,43.08
2023-01-25T09:21:43.581Z,41.03
2023-01-25T09:24:15.802Z,36.72
2023-01-25T09:26:56.013Z,44.28
2023-01-25T09:29:31.304Z,44.90
2023-01-25T09:32:03.745Z,45.30
2023-01-25T09:34:36.875Z,43.47
2023-01-25T09:37:08.811Z,39.50
2023-01-25T09:39:40.767Z,37.63
2023-01-25T09:42:20.576Z,39.90
2023-01-25T09:45:04.693Z,43.40
2023-01-25T09:47:48.894Z,33.60
2023-01-25T09:50:37.384Z,33.85
2023-01-25T09:53:33.616Z,34.88
2023-01-25T09:56:26.484Z,35.80
2023-01-25T09:59:03.666Z,32.03
2023-01-25T10:01:47.324Z,34.25
2023-01-25T10:04:23.382Z,29.55
2023-01-25T10:07:12.797Z,33.17
2023-01-25T10:09:53.756Z,34.40
2023-01-25T10:12:28.984Z,41.95
2023-01-25T10:15:00.958Z,53.28
2023-01-25T10:17:39.224Z,33.00
2023-01-25T10:21:00.027Z,37.35
2023-01-25T10:24:01.186Z,35.63
2023-01-25T10:26:38.891Z,35.08
2023-01-25T10:29:19.951Z,35.25
2023-01-25T10:31:54.545Z,37.25
2023-01-25T10:34:30.117Z,35.88
2023-01-25T10:37:10.832Z,37.70
2023-01-25T10:39:58.619Z,38.22
2023-01-25T10:42:49.275Z,32.67
2023-01-25T10:45:21.368Z,32.55
2023-01-25T10:48:03.704Z,32.13
2023-01-25T10:50:50.008Z,34.80
2023-01-25T10:53:25.427Z,66.47
2023-01-25T10:56:11.573Z,91.50
2023-01-25T10:58:47.072Z,38.70
2023-01-25T11:01:28.966Z,43.30
2023-01-25T11:04:02.299Z,42.70
2023-01-25T11:06:46.759Z,46.90
2023-01-25T11:09:21.861Z,49.15
2023-01-25T11:12:03.090Z,43.17
2023-01-25T11:14:35.331Z,42.15
2023-01-25T11:17:31.939Z,34.53
2023-01-25T11:20:18.133Z,36.78
2023-01-25T11:22:55.762Z,32.38
2023-01-25T11:25:29.192Z,37.97
2023-01-25T11:28:19.843Z,38.17
2023-01-25T11:30:53.190Z,36.55
2023-01-25T11:33:27.377Z,35.70
2023-01-25T11:36:14.246Z,38.33
2023-01-25T11:39:24.549Z,40.90
2023-01-25T11:42:29.835Z,45.55
2023-01-25T11:45:29.578Z,43.50
2023-01-25T11:48:43.824Z,52.20
2023-01-25T11:51:39.511Z,46.13
2023-01-25T11:54:36.319Z,44.72
2023-01-25T11:57:26.695Z,44.20
2023-01-25T12:00:10.935Z,40.17
2023-01-25T12:02:47.109Z,47.33
2023-01-25T12:05:37.602Z,39.78
2023-01-25T12:08:15.652Z,47.72
2023-01-25T12:11:14.364Z,36.40
2023-01-25T12:14:03.488Z,37.88
2023-01-25T12:16:45.135Z,31.80
2023-01-25T12:19:39.619Z,40.85
2023-01-25T12:22:50.187Z,42.63
2023-01-25T12:25:29.867Z,43.13
2023-01-25T12:28:21.179Z,36.78
2023-01-25T12:30:59.619Z,40.92
2023-01-25T12:33:47.711Z,44.03
2023-01-25T12:36:30.945Z,44.50
2023-01-25T12:39:16.789Z,56.25
2023-01-25T12:41:58.500Z,128.05
2023-01-25T12:44:45.315Z,49.80
2023-01-25T12:47:29.150Z,48.38
2023-01-25T12:50:26.547Z,48.33
2023-01-25T12:53:14.002Z,52.67
2023-01-25T12:55:48.000Z,46.83
2023-01-25T12:58:36.944Z,40.90
2023-01-25T13:01:23.279Z,40.30
2023-01-25T13:04:01.313Z,42.72
2023-01-25T13:06:49.059Z,42.90
2023-01-25T13:09:30.304Z,48.47
2023-01-25T13:12:05.841Z,52.95
2023-01-25T13:14:41.758Z,43.45
2023-01-25T13:17:34.181Z,42.45
2023-01-25T13:20:39.768Z,38.63
2023-01-25T13:23:32.827Z,42.47
2023-01-25T13:26:26.318Z,41.63
2023-01-25T13:29:02.089Z,45.92
2023-01-25T13:31:51.527Z,44.35
2023-01-25T13:34:36.545Z,57.20
2023-01-25T13:37:32.141Z,43.78
2023-01-25T13:40:34.287Z,55.05
2023-01-25T13:43:18.848Z,43.08
2023-01-25T13:45:52.551Z,41.67
2023-01-25T13:48:28.139Z,44.15
2023-01-25T13:51:12.925Z,39.58
2023-01-25T13:53:55.651Z,38.53
2023-01-25T13:56:35.535Z,35.17
2023-01-25T13:59:07.779Z,39.53
2023-01-25T14:01:40.561Z,45.13
2023-01-25T14:04:12.888Z,50.75
2023-01-25T14:06:45.642Z,63.67
2023-01-25T14:09:23.025Z,79.85
2023-01-25T14:12:01.858Z,59.40
2023-01-25T14:14:35.774Z,55.38
2023-01-25T14:17:22.477Z,58.88
2023-01-25T14:19:55.399Z,56.22
2023-01-25T14:22:30.233Z,45.03
2023-01-25T14:25:15.762Z,46.88
2023-01-25T14:27:50.606Z,45.60
2023-01-25T14:30:26.376Z,49.63
2023-01-25T14:33:01.146Z,47.85
2023-01-25T14:35:56.284Z,48.20
2023-01-25T14:38:38.572Z,62.17
2023-01-25T14:41:25.836Z,50.33
2023-01-25T14:44:02.530Z,55.22
2023-01-25T14:46:36.713Z,54.38
2023-01-25T14:49:15.314Z,61.13
2023-01-25T14:52:10.293Z,59.92
2023-01-25T14:55:00.866Z,50.90
2023-01-25T14:57:37.090Z,52.35
2023-01-25T15:00:22.990Z,61.95
2023-01-25T15:02:57.969Z,59.03
2023-01-25T15:05:33.465Z,54.90
2023-01-25T15:08:08.625Z,51.85
2023-01-25T15:10:52.648Z,55.47
2023-01-25T15:13:28.642Z,60.70
2023-01-25T15:16:02.881Z,59.88
2023-01-25T15:18:43.881Z,60.92
2023-01-25T15:21:24.429Z,54.08
2023-01-25T15:24:05.165Z,50.63
2023-01-25T15:26:37.151Z,57.28
2023-01-25T15:29:20.501Z,54.67
2023-01-25T15:31:52.890Z,64.18
2023-01-25T15:34:32.819Z,57.08
2023-01-25T15:37:04.713Z,58.28
2023-01-25T15:39:36.742Z,57.60
2023-01-25T15:42:09.472Z,72.70
2023-01-25T15:44:41.541Z,66.30
2023-01-25T15:47:13.527Z,51.60
2023-01-25T15:49:45.473Z,48.15
2023-01-25T15:52:17.548Z,49.42
2023-01-25T15:55:00.037Z,48.65
2023-01-25T15:57:36.849Z,55.75
2023-01-25T16:00:20.395Z,56.70
2023-01-25T16:02:52.560Z,60.15
2023-01-25T16:05:24.556Z,63.30
2023-01-25T16:07:56.523Z,57.85
2023-01-25T16:10:28.615Z,59.00
2023-01-25T16:13:00.732Z,58.55
2023-01-25T16:15:32.681Z,69.25
2023-01-25T16:18:05.136Z,81.45
2023-01-25T16:20:37.098Z,82.25
2023-01-25T16:23:09.075Z,73.40
2023-01-25T16:25:42.999Z,79.63
2023-01-25T16:28:18.246Z,81.03
2023-01-25T16:30:50.310Z,87.25
2023-01-25T16:33:25.209Z,68.63
2023-01-25T16:36:18.308Z,81.18
2023-01-25T16:38:50.900Z,78.53
2023-01-25T16:41:22.978Z,68.47
2023-01-25T16:43:54.952Z,77.65
2023-01-25T16:46:27.295Z,76.00
2023-01-25T16:49:05.370Z,73.03
2023-01-25T16:51:38.316Z,67.55
2023-01-25T16:54:12.237Z,74.65
2023-01-25T16:56:44.459Z,71.32
2023-01-25T16:59:17.442Z,72.90
2023-01-25T17:01:49.646Z,80.47
2023-01-25T17:04:21.667Z,94.43
2023-01-25T17:06:53.643Z,97.45
2023-01-25T17:09:25.773Z,96.05
2023-01-25T17:11:57.809Z,63.20
2023-01-25T17:14:29.729Z,81.80
2023-01-25T17:17:01.947Z,71.13
2023-01-25T17:19:33.893Z,75.85
2023-01-25T17:22:05.877Z,84.93
2023-01-25T17:24:38.058Z,95.82
2023-01-25T17:27:10.111Z,89.25
2023-01-25T17:29:42.102Z,74.53
2023-01-25T17:32:14.036Z,64.80
2023-01-25T17:34:46.133Z,72.65
2023-01-25T17:37:18.098Z,87.75
2023-01-25T17:39:50.153Z,78.53
2023-01-25T17:42:22.463Z,92.72
2023-01-25T17:44:54.407Z,82.28
2023-01-25T17:47:26.357Z,93.10
2023-01-25T17:49:58.212Z,96.43
2023-01-25T17:52:30.183Z,99.80
2023-01-25T17:55:02.244Z,84.35
2023-01-25T17:57:35.787Z,87.25
2023-01-25T18:00:12.170Z,82.53
2023-01-25T18:02:47.577Z,73.32
2023-01-25T18:05:20.240Z,60.88
2023-01-25T18:07:52.165Z,66.80
2023-01-25T18:10:24.091Z,57.83
2023-01-25T18:13:04.562Z,65.00
2023-01-25T18:15:37.124Z,66.30
2023-01-25T18:18:09.908Z,71.50
2023-01-25T18:20:41.955Z,53.35
2023-01-25T18:23:13.882Z,81.88
2023-01-25T18:25:46.488Z,107.78
2023-01-25T18:28:18.531Z,124.65
2023-01-25T18:30:59.456Z,129.60
2023-01-25T18:33:33.494Z,106.82
2023-01-25T18:36:05.936Z,104.85
2023-01-25T18:38:37.909Z,118.47
2023-01-25T18:41:10.063Z,133.70
2023-01-25T18:43:42.024Z,129.10
2023-01-25T18:46:14.221Z,123.03
2023-01-25T18:48:47.448Z,108.78
2023-01-25T18:51:19.850Z,111.15
2023-01-25T18:56:47.342Z,125.70
2023-01-25T18:59:19.205Z,90.25
2023-01-25T19:01:51.236Z,87.72
2023-01-25T19:04:23.191Z,89.32
2023-01-25T19:06:59.298Z,89.95
2023-01-25T19:09:31.893Z,85.30
2023-01-25T19:12:04.368Z,85.63
2023-01-25T19:14:36.356Z,88.65
2023-01-25T19:17:08.759Z,87.90
2023-01-25T19:19:41.289Z,85.65
2023-01-25T19:22:13.270Z,85.15
2023-01-25T19:24:45.220Z,78.95
2023-01-25T19:27:17.239Z,77.25
2023-01-25T19:29:50.027Z,76.13
2023-01-25T19:32:21.974Z,87.25
2023-01-25T19:34:53.934Z,75.10
2023-01-25T19:37:25.895Z,80.70
2023-01-25T19:39:57.838Z,77.18
2023-01-25T19:42:29.759Z,75.05
2023-01-25T19:45:03.318Z,74.78
2023-01-25T19:47:35.263Z,72.40
2023-01-25T19:50:07.872Z,73.18
2023-01-25T19:52:39.795Z,83.93
2023-01-25T19:55:12.062Z,71.97
2023-01-25T19:57:46.327Z,82.47
2023-01-25T20:00:20.033Z,87.35
2023-01-25T20:02:52.143Z,77.90
2023-01-25T20:05:24.258Z,74.07
2023-01-25T20:07:56.280Z,79.05
2023-01-25T20:10:28.224Z,82.07
2023-01-25T20:13:00.279Z,89.75
2023-01-25T20:15:32.923Z,84.70
2023-01-25T20:18:04.987Z,95.78
2023-01-25T20:20:36.920Z,88.93
2023-01-25T20:23:08.884Z,102.50
2023-01-25T20:25:41.213Z,93.15
2023-01-25T20:28:13.199Z,84.25
2023-01-25T20:30:45.162Z,82.22
2023-01-25T20:33:18.603Z,82.40
2023-01-25T20:35:50.585Z,81.68
2023-01-25T20:38:22.518Z,78.35
2023-01-25T20:40:59.169Z,79.25
2023-01-25T20:43:31.746Z,82.82
2023-01-25T20:46:03.915Z,82.32
2023-01-25T20:48:37.228Z,98.20
2023-01-25T20:51:13.358Z,110.57
2023-01-25T20:53:46.401Z,103.68
2023-01-25T20:56:20.053Z,107.32
2023-01-25T20:58:53.061Z,95.75
2023-01-25T21:01:29.846Z,90.72
2023-01-25T21:04:01.826Z,86.63
2023-01-25T21:06:35.604Z,90.05
2023-01-25T21:09:07.618Z,85.28
2023-01-25T21:11:39.753Z,88.30
2023-01-25T21:14:11.726Z,91.68
2023-01-25T21:16:43.588Z,96.13
2023-01-25T21:19:15.494Z,97.00
2023-01-25T21:21:47.365Z,92.40
2023-01-25T21:24:19.396Z,92.93
2023-01-25T21:26:51.385Z,99.40
2023-01-25T21:29:23.362Z,92.70
2023-01-25T21:31:56.117Z,84.30
2023-01-25T21:34:28.100Z,84.57
2023-01-25T21:37:00.289Z,79.95
2023-01-25T21:39:32.265Z,74.50
2023-01-25T21:42:04.422Z,73.57
2023-01-25T21:44:54.800Z,72.07
2023-01-25T21:47:31.134Z,76.60
2023-01-25T21:50:21.847Z,75.90
2023-01-25T21:52:55.817Z,81.22
2023-01-25T21:55:27.783Z,74.38
2023-01-25T21:57:59.650Z,75.50
2023-01-25T22:00:31.611Z,73.22
2023-01-25T22:03:04.163Z,86.50
2023-01-25T22:05:36.096Z,75.25
2023-01-25T22:08:08.007Z,76.10
2023-01-25T22:10:40.486Z,67.55
2023-01-25T22:13:13.209Z,67.50
2023-01-25T22:15:45.270Z,69.95
2023-01-25T22:18:17.222Z,64.50
2023-01-25T22:20:49.153Z,68.30
2023-01-25T22:23:21.100Z,69.32
2023-01-25T22:26:08.284Z,94.45
2023-01-25T22:28:50.956Z,83.03
2023-01-25T22:31:28.988Z,78.70
2023-01-25T22:34:01.073Z,84.53
2023-01-25T22:36:33.115Z,88.43
2023-01-25T22:39:06.041Z,75.65
2023-01-25T22:41:38.366Z,68.72
2023-01-25T22:44:10.598Z,58.40
2023-01-25T22:46:42.568Z,65.80
2023-01-25T22:49:14.579Z,68.30
2023-01-25T22:51:46.565Z,74.32
2023-01-25T22:54:18.571Z,72.22
2023-01-25T22:56:50.473Z,77.53
2023-01-25T22:59:22.461Z,70.55
2023-01-25T23:01:54.494Z,67.10
2023-01-25T23:04:26.748Z,65.40
2023-01-25T23:07:03.072Z,60.75
2023-01-25T23:09:35.037Z,59.20
2023-01-25T23:12:07.729Z,56.83
2023-01-25T23:14:51.693Z,62.10
2023-01-25T23:17:42.882Z,62.20
2023-01-25T23:20:14.943Z,61.17
2023-01-25T23:22:47.006Z,60.95
2023-01-25T23:25:19.097Z,68.38
2023-01-25T23:27:51.322Z,58.30
2023-01-25T23:30:23.513Z,61.30
2023-01-25T23:32:55.434Z,59.70
2023-01-25T23:35:27.766Z,56.67
2023-01-25T23:37:59.794Z,57.38
2023-01-25T23:40:31.697Z,58.38
2023-01-25T23:43:03.647Z,60.03
2023-01-25T23:45:35.591Z,54.70
2023-01-25T23:48:07.619Z,61.63
2023-01-25T23:50:39.580Z,64.05
2023-01-25T23:53:11.599Z,62.72
2023-01-25T23:56:01.375Z,61.58
2023-01-25T23:58:35.664Z,59.15
